Time;durP1;ratioP1;P1;durP2;ratioP2;P2;SDS_P1;SDS_P2;PMS_P1;PMS_P2;Temp;Humidity;BMP_temperature;BMP_pressure;BME280_temperature;BME280_humidity;BME280_pressure;Samples;Min_cycle;Max_cycle;Signal;HPM_P1;HPM_P2
2023/07/28 00:01:38;;;;;;;2.43;2.13;;;16.70;99.90;;;;;;4981187;28;20764;-75
2023/07/28 00:04:07;;;;;;;2.63;2.43;;;16.70;99.90;;;;;;4981421;28;20625;-75
2023/07/28 00:06:35;;;;;;;6.10;2.60;;;16.80;99.90;;;;;;4982943;28;21004;-75
2023/07/28 00:09:02;;;;;;;2.77;2.50;;;16.70;99.90;;;;;;4982846;28;20633;-75
2023/07/28 00:11:28;;;;;;;3.30;2.50;;;16.70;99.90;;;;;;4985534;28;20661;-75
2023/07/28 00:13:55;;;;;;;2.77;2.30;;;16.60;99.90;;;;;;4979643;28;20662;-75
2023/07/28 00:16:22;;;;;;;2.70;2.50;;;16.70;99.90;;;;;;4981077;28;21227;-75
2023/07/28 00:18:49;;;;;;;2.47;2.27;;;16.60;99.90;;;;;;4982690;28;21157;-75
2023/07/28 00:21:16;;;;;;;3.83;2.17;;;16.50;99.90;;;;;;4983473;28;20656;-75
2023/07/28 00:23:44;;;;;;;2.80;2.57;;;16.50;99.90;;;;;;4980502;28;20617;-75
2023/07/28 00:26:11;;;;;;;4.07;2.80;;;16.40;99.90;;;;;;4978940;28;20648;-75
2023/07/28 00:28:37;;;;;;;3.23;2.23;;;16.40;99.90;;;;;;4979095;28;21646;-76
2023/07/28 00:31:04;;;;;;;2.87;2.63;;;16.40;99.90;;;;;;4978862;28;20692;-75
2023/07/28 00:33:31;;;;;;;4.20;2.37;;;16.30;99.90;;;;;;4976405;28;20664;-75
2023/07/28 00:35:58;;;;;;;2.53;2.20;;;16.30;99.90;;;;;;4982159;28;20689;-75
2023/07/28 00:38:25;;;;;;;4.90;2.23;;;16.30;99.90;;;;;;4979300;28;20626;-75
2023/07/28 00:40:53;;;;;;;2.30;2.10;;;16.30;99.90;;;;;;4977792;28;20782;-75
2023/07/28 00:43:20;;;;;;;3.00;2.07;;;16.30;99.90;;;;;;4983142;28;21071;-75
2023/07/28 00:45:46;;;;;;;2.27;2.07;;;16.40;99.90;;;;;;4982036;28;20675;-76
2023/07/28 00:48:15;;;;;;;2.40;2.03;;;16.30;99.90;;;;;;4978537;28;20638;-75
2023/07/28 00:50:43;;;;;;;2.40;2.20;;;16.30;99.90;;;;;;4978485;28;20641;-75
2023/07/28 00:53:10;;;;;;;2.30;2.10;;;16.30;99.90;;;;;;4978839;28;20658;-75
2023/07/28 00:55:36;;;;;;;2.63;1.97;;;16.30;99.90;;;;;;4980839;28;20652;-76
2023/07/28 00:58:04;;;;;;;2.77;2.30;;;16.30;99.90;;;;;;4978369;28;20632;-75
2023/07/28 01:00:31;;;;;;;2.30;2.10;;;16.20;99.90;;;;;;4977312;28;21027;-75
2023/07/28 01:02:58;;;;;;;2.67;1.73;;;16.20;99.90;;;;;;4981530;28;20643;-75
2023/07/28 01:05:31;;;;;;;1.33;1.23;;;16.20;99.90;;;;;;4976694;28;20650;-75
2023/07/28 01:08:03;;;;;;;1.90;1.80;;;16.20;99.90;;;;;;4978165;28;20639;-75
2023/07/28 01:10:32;;;;;;;2.20;2.00;;;16.20;99.90;;;;;;4981238;28;20660;-76
2023/07/28 01:12:59;;;;;;;2.30;1.77;;;16.10;99.90;;;;;;4981022;28;21209;-76
2023/07/28 01:15:27;;;;;;;2.23;2.10;;;16.10;99.90;;;;;;4978191;28;20646;-76
2023/07/28 01:17:55;;;;;;;2.27;2.07;;;16.10;99.90;;;;;;4981792;28;20642;-75
2023/07/28 01:20:27;;;;;;;2.53;1.97;;;16.10;99.90;;;;;;4980967;28;20728;-75
2023/07/28 01:23:08;;;;;;;2.13;1.93;;;16.10;99.90;;;;;;4980395;28;20618;-75
2023/07/28 01:25:48;;;;;;;1.43;1.33;;;16.00;99.90;;;;;;4980735;28;20637;-76
2023/07/28 01:28:18;;;;;;;2.20;2.00;;;16.10;99.90;;;;;;4974104;28;21252;-75
2023/07/28 01:30:46;;;;;;;2.20;2.00;;;16.10;99.90;;;;;;4974511;28;21085;-75
2023/07/28 01:33:14;;;;;;;2.20;2.03;;;16.00;99.90;;;;;;4978614;28;20761;-75
2023/07/28 01:35:42;;;;;;;1.73;1.63;;;16.00;99.90;;;;;;4983331;28;20708;-75
2023/07/28 01:38:10;;;;;;;2.10;1.90;;;16.00;99.90;;;;;;4979478;28;20634;-75
2023/07/28 01:40:37;;;;;;;2.03;1.83;;;16.00;99.90;;;;;;4977493;28;20633;-75
2023/07/28 01:43:03;;;;;;;1.93;1.83;;;16.10;99.90;;;;;;4978180;28;20661;-75
2023/07/28 01:45:32;;;;;;;2.30;2.07;;;16.10;99.90;;;;;;4981012;28;20681;-75
2023/07/28 01:48:00;;;;;;;1.77;1.67;;;16.10;99.90;;;;;;4974203;28;20637;-75
2023/07/28 01:50:27;;;;;;;1.90;1.80;;;16.10;99.90;;;;;;4978836;28;20708;-75
2023/07/28 01:52:56;;;;;;;2.80;1.90;;;16.10;99.90;;;;;;4977987;28;20651;-75
2023/07/28 01:55:23;;;;;;;1.90;1.80;;;16.20;99.90;;;;;;4978054;28;20711;-75
2023/07/28 01:57:56;;;;;;;2.03;1.83;;;16.20;99.90;;;;;;4981647;28;20639;-75
2023/07/28 02:00:24;;;;;;;1.60;1.50;;;16.20;99.90;;;;;;4979934;28;20630;-75
2023/07/28 02:02:54;;;;;;;2.37;2.27;;;16.10;99.90;;;;;;4976989;28;20975;-75
2023/07/28 02:05:22;;;;;;;5.07;2.00;;;16.20;99.90;;;;;;4980939;28;20621;-75
2023/07/28 02:07:50;;;;;;;1.83;1.73;;;16.20;99.90;;;;;;4980833;28;20632;-75
2023/07/28 02:10:17;;;;;;;1.40;1.30;;;16.20;99.90;;;;;;4977243;28;20648;-75
2023/07/28 02:12:45;;;;;;;1.60;1.50;;;16.10;99.90;;;;;;4979012;28;20634;-75
2023/07/28 02:15:12;;;;;;;1.80;1.60;;;16.10;99.90;;;;;;4979444;28;20631;-75
2023/07/28 02:17:40;;;;;;;1.70;1.60;;;16.10;99.90;;;;;;4981929;28;20629;-75
2023/07/28 02:20:12;;;;;;;2.23;2.03;;;16.10;99.90;;;;;;4979785;28;20684;-75
2023/07/28 02:22:40;;;;;;;2.17;1.90;;;16.10;99.90;;;;;;4979657;28;20626;-75
2023/07/28 02:25:09;;;;;;;2.73;1.90;;;16.10;99.90;;;;;;4978225;28;20654;-75
2023/07/28 02:27:35;;;;;;;1.60;1.47;;;16.10;99.90;;;;;;4977363;28;20681;-75
2023/07/28 02:30:05;;;;;;;1.90;1.80;;;16.20;99.90;;;;;;4978261;28;21257;-75
2023/07/28 02:32:32;;;;;;;2.67;1.90;;;16.20;99.90;;;;;;4981054;28;20740;-75
2023/07/28 02:34:59;;;;;;;1.93;1.70;;;16.20;99.90;;;;;;4981469;28;20654;-75
2023/07/28 02:37:27;;;;;;;1.70;1.60;;;16.20;99.90;;;;;;4980077;28;21286;-75
2023/07/28 02:39:54;;;;;;;1.77;1.67;;;16.20;99.90;;;;;;4978164;28;20725;-75
2023/07/28 02:42:23;;;;;;;1.63;1.53;;;16.20;99.90;;;;;;4982047;28;20732;-75
2023/07/28 02:44:50;;;;;;;1.73;1.60;;;16.20;99.90;;;;;;4976831;28;20625;-75
2023/07/28 02:47:17;;;;;;;1.80;1.60;;;16.20;99.90;;;;;;4978225;28;20659;-75
2023/07/28 02:49:44;;;;;;;2.10;1.90;;;16.30;99.90;;;;;;4971843;28;20635;-75
2023/07/28 02:52:10;;;;;;;1.63;1.53;;;16.40;99.90;;;;;;4976794;28;20652;-75
2023/07/28 02:54:39;;;;;;;2.90;2.10;;;16.50;99.90;;;;;;4977152;28;20712;-75
2023/07/28 02:57:06;;;;;;;2.57;2.07;;;16.50;99.90;;;;;;4976477;28;20709;-75
2023/07/28 02:59:33;;;;;;;1.57;1.47;;;16.50;99.90;;;;;;4972287;28;20638;-76
2023/07/28 03:02:01;;;;;;;1.37;1.27;;;16.50;99.90;;;;;;4974893;28;20760;-75
2023/07/28 03:04:29;;;;;;;5.13;2.37;;;16.50;99.90;;;;;;4974465;28;20757;-76
2023/07/28 03:06:57;;;;;;;2.00;1.40;;;16.50;99.90;;;;;;4979601;28;20691;-75
2023/07/28 03:09:24;;;;;;;2.40;2.20;;;16.50;99.90;;;;;;4971963;28;20659;-75
2023/07/28 03:11:52;;;;;;;2.13;1.93;;;16.50;99.90;;;;;;4982009;28;20719;-75
2023/07/28 03:14:20;;;;;;;2.10;1.90;;;16.60;99.90;;;;;;4975808;28;21440;-75
2023/07/28 03:16:47;;;;;;;4.20;1.60;;;16.60;99.90;;;;;;4983587;28;21312;-75
2023/07/28 03:19:15;;;;;;;2.40;1.90;;;16.60;99.90;;;;;;4978165;28;20630;-76
2023/07/28 03:21:43;;;;;;;1.63;1.40;;;16.60;99.90;;;;;;4977081;28;20653;-75
2023/07/28 03:24:09;;;;;;;2.57;1.80;;;16.70;99.90;;;;;;4979229;28;21057;-75
2023/07/28 03:26:36;;;;;;;1.83;1.73;;;16.60;99.90;;;;;;4978613;28;20641;-75
2023/07/28 03:29:05;;;;;;;2.97;2.30;;;16.70;99.90;;;;;;4979022;28;21114;-76
2023/07/28 03:31:35;;;;;;;2.63;2.40;;;16.70;99.90;;;;;;4976789;28;20642;-76
2023/07/28 03:34:02;;;;;;;1.70;1.60;;;16.70;99.90;;;;;;4976895;28;21030;-75
2023/07/28 03:36:31;;;;;;;2.00;1.90;;;16.80;99.90;;;;;;4979617;28;20650;-75
2023/07/28 03:38:58;;;;;;;2.67;2.07;;;16.80;99.90;;;;;;4976770;28;20634;-75
2023/07/28 03:41:26;;;;;;;2.60;1.80;;;16.80;99.90;;;;;;4970237;28;20663;-75
2023/07/28 03:43:54;;;;;;;1.83;1.73;;;16.80;99.90;;;;;;4976282;28;20689;-75
2023/07/28 03:46:23;;;;;;;2.23;2.00;;;16.80;99.90;;;;;;4978332;28;20748;-75
2023/07/28 03:48:51;;;;;;;3.80;1.83;;;16.80;99.90;;;;;;4984526;28;21047;-75
2023/07/28 03:51:19;;;;;;;1.50;1.30;;;16.80;99.90;;;;;;4979898;28;21309;-75
2023/07/28 03:53:46;;;;;;;1.63;1.53;;;16.80;99.90;;;;;;4977275;28;20649;-75
2023/07/28 03:56:14;;;;;;;1.90;1.80;;;16.70;99.90;;;;;;4982322;28;20660;-75
2023/07/28 03:58:41;;;;;;;2.20;2.00;;;16.70;99.90;;;;;;4976115;28;20999;-75
2023/07/28 04:01:09;;;;;;;1.57;1.47;;;16.80;99.90;;;;;;4978097;28;20939;-75
2023/07/28 04:03:38;;;;;;;3.00;2.23;;;16.80;99.90;;;;;;4984724;28;21233;-76
2023/07/28 04:06:10;;;;;;;3.50;1.97;;;16.80;99.90;;;;;;4979741;28;21142;-75
2023/07/28 04:08:38;;;;;;;2.40;2.20;;;16.80;99.90;;;;;;4981877;28;21009;-75
2023/07/28 04:11:06;;;;;;;2.23;2.13;;;16.80;99.90;;;;;;4980777;28;20710;-75
2023/07/28 04:13:33;;;;;;;4.40;2.00;;;16.80;99.90;;;;;;4982284;28;20626;-75
2023/07/28 04:16:00;;;;;;;1.70;1.60;;;16.80;99.90;;;;;;4980309;28;20638;-75
2023/07/28 04:18:27;;;;;;;3.23;2.37;;;16.80;99.90;;;;;;4979674;28;20648;-75
2023/07/28 04:20:55;;;;;;;2.00;1.70;;;16.80;99.90;;;;;;4980158;28;20662;-75
2023/07/28 04:23:22;;;;;;;2.10;1.90;;;16.80;99.90;;;;;;4980336;28;20648;-75
2023/07/28 04:25:51;;;;;;;3.47;2.17;;;16.80;99.90;;;;;;4980996;28;20652;-75
2023/07/28 04:28:19;;;;;;;2.40;1.97;;;16.80;99.90;;;;;;4975818;28;20770;-75
2023/07/28 04:30:46;;;;;;;1.90;1.70;;;16.80;99.90;;;;;;4977945;28;21130;-75
2023/07/28 04:33:12;;;;;;;1.70;1.60;;;16.90;99.90;;;;;;4986938;28;20656;-75
2023/07/28 04:35:39;;;;;;;1.90;1.80;;;16.90;99.90;;;;;;4978756;28;20796;-75
2023/07/28 04:38:07;;;;;;;2.70;2.50;;;16.90;99.90;;;;;;4985100;28;20621;-75
2023/07/28 04:40:34;;;;;;;1.93;1.83;;;16.90;99.90;;;;;;4980083;28;20743;-75
2023/07/28 04:43:01;;;;;;;2.20;2.00;;;17.00;99.90;;;;;;4981941;28;20728;-75
2023/07/28 04:45:27;;;;;;;1.90;1.40;;;17.00;99.90;;;;;;4979012;28;21061;-75
2023/07/28 04:47:54;;;;;;;2.50;2.10;;;17.00;99.90;;;;;;4983532;28;20636;-75
2023/07/28 04:50:21;;;;;;;1.83;1.73;;;16.90;99.90;;;;;;4981926;28;20657;-75
2023/07/28 04:52:48;;;;;;;2.17;1.97;;;17.00;99.90;;;;;;4979504;28;20616;-75
2023/07/28 04:55:16;;;;;;;1.67;1.57;;;17.00;99.90;;;;;;4974725;28;20658;-75
2023/07/28 04:57:43;;;;;;;2.17;1.70;;;17.00;99.90;;;;;;4980950;28;20630;-75
2023/07/28 05:00:11;;;;;;;2.10;1.83;;;16.90;99.90;;;;;;4978498;28;20636;-75
2023/07/28 05:02:37;;;;;;;1.83;1.57;;;16.90;99.90;;;;;;4978664;28;20760;-75
2023/07/28 05:05:05;;;;;;;3.23;2.13;;;16.90;99.90;;;;;;4984147;28;20676;-75
2023/07/28 05:07:31;;;;;;;2.30;1.80;;;16.90;99.90;;;;;;4979439;28;20704;-74
2023/07/28 05:09:58;;;;;;;1.77;1.60;;;16.90;99.90;;;;;;4980682;28;20638;-76
2023/07/28 05:12:26;;;;;;;2.17;1.97;;;16.90;99.90;;;;;;4979179;28;20655;-75
2023/07/28 05:14:54;;;;;;;2.20;1.83;;;16.90;99.90;;;;;;4977307;28;20660;-76
2023/07/28 05:17:20;;;;;;;2.70;2.20;;;16.80;99.90;;;;;;4983919;28;21214;-75
2023/07/28 05:19:47;;;;;;;1.80;1.70;;;16.70;99.90;;;;;;4979235;28;20634;-76
2023/07/28 05:22:14;;;;;;;1.80;1.70;;;16.80;99.90;;;;;;4981053;28;21096;-76
2023/07/28 05:24:41;;;;;;;2.80;2.40;;;16.80;99.90;;;;;;4981462;28;20640;-77
2023/07/28 05:27:07;;;;;;;2.30;2.10;;;16.80;99.90;;;;;;4979884;28;20690;-75
2023/07/28 05:29:36;;;;;;;1.80;1.70;;;16.80;99.90;;;;;;4980782;28;20659;-70
2023/07/28 05:32:03;;;;;;;2.23;2.03;;;16.80;99.90;;;;;;4976386;28;20658;-74
2023/07/28 05:34:31;;;;;;;3.30;2.70;;;16.80;99.90;;;;;;4977281;28;20654;-73
2023/07/28 05:36:57;;;;;;;2.27;2.13;;;16.80;99.90;;;;;;4977299;28;20658;-73
2023/07/28 05:39:24;;;;;;;2.17;1.90;;;16.80;99.90;;;;;;4979992;28;20636;-73
2023/07/28 05:41:51;;;;;;;2.70;2.50;;;16.80;99.90;;;;;;4979897;28;21047;-73
2023/07/28 05:44:18;;;;;;;3.30;2.27;;;16.90;99.90;;;;;;4977872;28;20629;-71
2023/07/28 05:46:48;;;;;;;2.90;2.70;;;16.80;99.90;;;;;;4975183;28;20657;-72
2023/07/28 05:49:15;;;;;;;3.90;2.80;;;16.80;99.90;;;;;;4979117;28;20638;-72
2023/07/28 05:51:41;;;;;;;2.30;2.10;;;16.80;99.90;;;;;;4974493;28;20645;-71
2023/07/28 05:54:08;;;;;;;4.07;3.10;;;16.80;99.90;;;;;;4977762;28;20634;-72
2023/07/28 05:56:35;;;;;;;2.77;2.57;;;16.90;99.90;;;;;;4977064;28;20696;-72
2023/07/28 05:59:02;;;;;;;2.87;2.00;;;16.80;99.90;;;;;;4976686;28;20665;-72
2023/07/28 06:01:29;;;;;;;2.60;2.40;;;16.90;99.90;;;;;;4979106;28;20649;-73
2023/07/28 06:03:58;;;;;;;2.77;2.57;;;16.90;99.90;;;;;;4981225;28;20638;-72
2023/07/28 06:06:26;;;;;;;5.13;3.17;;;16.90;99.90;;;;;;4975610;28;20646;-73
2023/07/28 06:08:52;;;;;;;2.47;2.27;;;16.90;99.90;;;;;;4977494;28;20914;-72
2023/07/28 06:11:19;;;;;;;3.30;2.40;;;17.00;99.90;;;;;;4979639;28;20658;-72
2023/07/28 06:13:46;;;;;;;2.80;2.60;;;17.00;99.90;;;;;;4975308;28;20638;-72
2023/07/28 06:16:13;;;;;;;2.93;2.70;;;17.10;99.90;;;;;;4978483;28;20680;-72
2023/07/28 06:18:40;;;;;;;2.03;1.83;;;17.10;99.90;;;;;;4980421;28;20625;-72
2023/07/28 06:21:08;;;;;;;3.40;2.43;;;17.10;99.90;;;;;;4980693;28;21090;-72
2023/07/28 06:23:35;;;;;;;2.57;2.37;;;17.10;99.90;;;;;;4979786;28;20638;-72
2023/07/28 06:26:02;;;;;;;3.90;2.67;;;17.10;99.90;;;;;;4978938;28;20649;-72
2023/07/28 06:28:28;;;;;;;2.30;2.10;;;17.10;99.90;;;;;;4980665;28;21183;-73
2023/07/28 06:30:56;;;;;;;2.60;2.40;;;17.20;99.90;;;;;;4975299;28;21234;-73
2023/07/28 06:33:23;;;;;;;2.53;2.37;;;17.20;99.90;;;;;;4978445;28;20636;-73
2023/07/28 06:35:50;;;;;;;3.27;3.07;;;17.20;99.90;;;;;;4980672;28;20673;-73
2023/07/28 06:38:18;;;;;;;2.77;2.43;;;17.30;99.90;;;;;;4978352;28;20630;-73
2023/07/28 06:40:45;;;;;;;2.93;2.50;;;17.30;99.90;;;;;;4976130;28;20657;-73
2023/07/28 06:43:12;;;;;;;3.40;2.40;;;17.40;99.90;;;;;;4976632;28;20637;-72
2023/07/28 06:45:39;;;;;;;4.50;2.30;;;17.50;99.90;;;;;;4981619;28;21262;-73
2023/07/28 06:48:06;;;;;;;2.90;2.70;;;17.50;99.90;;;;;;4978218;28;20638;-72
2023/07/28 06:50:33;;;;;;;2.63;2.43;;;17.60;99.90;;;;;;4979461;28;20649;-71
2023/07/28 06:52:59;;;;;;;2.57;2.37;;;17.60;99.90;;;;;;4979844;28;21138;-71
2023/07/28 06:55:27;;;;;;;2.10;2.00;;;17.70;99.90;;;;;;4980244;28;20686;-70
2023/07/28 06:57:54;;;;;;;4.40;2.43;;;17.70;99.90;;;;;;4975821;28;20625;-70
2023/07/28 07:00:29;;;;;;;2.47;2.10;;;17.70;99.90;;;;;;4978180;28;21025;-72
2023/07/28 07:03:05;;;;;;;2.30;2.10;;;17.80;99.90;;;;;;4979590;28;20819;-72
2023/07/28 07:05:32;;;;;;;2.73;2.33;;;17.80;99.90;;;;;;4979324;28;20661;-73
2023/07/28 07:07:58;;;;;;;3.50;2.37;;;17.90;99.90;;;;;;4979243;28;21390;-73
2023/07/28 07:10:27;;;;;;;2.67;2.47;;;18.00;99.90;;;;;;4976750;28;20664;-76
2023/07/28 07:12:53;;;;;;;2.50;2.30;;;18.00;99.90;;;;;;4980088;28;21270;-75
2023/07/28 07:15:20;;;;;;;2.40;2.20;;;18.00;99.90;;;;;;4974612;28;20765;-74
2023/07/28 07:17:47;;;;;;;2.73;2.50;;;18.00;99.90;;;;;;4979023;28;20622;-74
2023/07/28 07:20:15;;;;;;;3.10;2.80;;;18.10;99.90;;;;;;4978629;28;20796;-74
2023/07/28 07:22:43;;;;;;;2.93;2.63;;;18.00;99.90;;;;;;4976696;28;20693;-74
2023/07/28 07:25:09;;;;;;;2.33;2.13;;;18.10;99.90;;;;;;4976275;28;20627;-74
2023/07/28 07:27:37;;;;;;;2.67;2.47;;;18.10;99.90;;;;;;4981258;28;20665;-74
2023/07/28 07:30:05;;;;;;;6.30;2.70;;;18.30;99.90;;;;;;4978003;28;20736;-76
2023/07/28 07:32:33;;;;;;;2.50;2.30;;;18.40;99.90;;;;;;4975012;28;20780;-75
2023/07/28 07:35:01;;;;;;;2.27;2.10;;;18.50;99.90;;;;;;4981159;28;20661;-76
2023/07/28 07:37:28;;;;;;;3.30;2.40;;;18.60;99.90;;;;;;4979140;28;20630;-75
2023/07/28 07:39:55;;;;;;;1.90;1.80;;;18.70;99.90;;;;;;4979770;28;21174;-76
2023/07/28 07:42:22;;;;;;;2.90;2.27;;;18.70;99.90;;;;;;4981364;28;20644;-76
2023/07/28 07:44:50;;;;;;;2.50;2.30;;;18.70;99.90;;;;;;4983533;28;20692;-76
2023/07/28 07:47:17;;;;;;;2.63;2.30;;;18.80;99.90;;;;;;4986887;28;20740;-76
2023/07/28 07:49:44;;;;;;;2.60;1.90;;;18.70;99.90;;;;;;4978035;28;21017;-76
2023/07/28 07:52:11;;;;;;;2.20;1.93;;;18.70;99.90;;;;;;4974880;28;20641;-76
2023/07/28 07:54:38;;;;;;;3.17;2.10;;;18.70;99.90;;;;;;4976812;28;20628;-77
2023/07/28 07:57:06;;;;;;;2.27;1.80;;;18.80;99.90;;;;;;4981162;28;20684;-77
2023/07/28 07:59:33;;;;;;;4.00;1.97;;;18.80;99.90;;;;;;4982354;28;20639;-75
2023/07/28 08:02:02;;;;;;;2.60;2.40;;;18.80;99.90;;;;;;4974509;28;20728;-76
2023/07/28 08:04:31;;;;;;;2.57;2.20;;;18.90;99.90;;;;;;4980732;28;20731;-74
2023/07/28 08:07:00;;;;;;;2.30;2.10;;;18.90;99.90;;;;;;4982442;28;20649;-75
2023/07/28 08:09:27;;;;;;;2.53;2.20;;;18.90;99.90;;;;;;4981300;28;20663;-77
2023/07/28 08:11:57;;;;;;;2.17;1.97;;;18.80;99.90;;;;;;4976328;28;20661;-74
2023/07/28 08:14:24;;;;;;;2.63;2.43;;;18.90;99.90;;;;;;4981369;28;20630;-75
2023/07/28 08:16:51;;;;;;;1.97;1.60;;;19.00;99.90;;;;;;4983835;28;21014;-76
2023/07/28 08:19:19;;;;;;;2.80;1.80;;;19.10;99.90;;;;;;4979093;28;20638;-77
2023/07/28 08:21:46;;;;;;;3.77;2.73;;;19.10;99.90;;;;;;4982219;28;20665;-75
2023/07/28 08:24:15;;;;;;;1.80;1.70;;;19.30;99.90;;;;;;4978452;28;20637;-74
2023/07/28 08:26:42;;;;;;;2.97;2.07;;;19.40;99.90;;;;;;4978920;28;20697;-73
2023/07/28 08:29:09;;;;;;;2.03;1.93;;;19.50;99.90;;;;;;4978188;28;20716;-73
2023/07/28 08:31:36;;;;;;;2.80;1.97;;;19.70;99.90;;;;;;4980722;28;20709;-72
2023/07/28 08:34:03;;;;;;;3.07;1.90;;;19.90;99.90;;;;;;4979074;28;20639;-77
2023/07/28 08:36:32;;;;;;;1.77;1.67;;;19.80;99.90;;;;;;4979095;28;21248;-73
2023/07/28 08:38:58;;;;;;;2.57;2.37;;;19.90;99.90;;;;;;4982237;28;20629;-71
2023/07/28 08:41:25;;;;;;;2.50;2.30;;;20.00;99.90;;;;;;4980754;28;20665;-71
2023/07/28 08:43:54;;;;;;;1.87;1.60;;;20.10;99.90;;;;;;4971977;28;20639;-72
2023/07/28 08:46:21;;;;;;;1.53;1.43;;;20.10;99.90;;;;;;4971898;28;20744;-73
2023/07/28 08:48:48;;;;;;;1.93;1.83;;;20.00;99.90;;;;;;4984538;28;20657;-73
2023/07/28 08:51:14;;;;;;;1.80;1.70;;;20.00;99.90;;;;;;4983967;28;20775;-72
2023/07/28 08:53:42;;;;;;;1.73;1.50;;;20.00;99.90;;;;;;4977373;28;20633;-72
2023/07/28 08:56:10;;;;;;;3.50;2.00;;;20.00;99.90;;;;;;4972022;28;20777;-72
2023/07/28 08:58:37;;;;;;;2.07;1.90;;;20.00;99.90;;;;;;4978605;28;20738;-72
2023/07/28 09:01:04;;;;;;;2.50;2.30;;;20.00;99.90;;;;;;4978772;28;20679;-71
2023/07/28 09:03:33;;;;;;;2.13;1.93;;;20.10;99.90;;;;;;4983634;28;20635;-73
2023/07/28 09:06:01;;;;;;;2.23;2.03;;;20.30;99.90;;;;;;4983355;28;20650;-72
2023/07/28 09:08:28;;;;;;;2.53;1.97;;;20.40;99.90;;;;;;4980228;28;20621;-74
2023/07/28 09:10:57;;;;;;;2.00;1.90;;;20.40;99.90;;;;;;4982220;28;20756;-73
2023/07/28 09:13:24;;;;;;;3.87;2.33;;;20.40;99.90;;;;;;4980089;28;20229;-73
2023/07/28 09:15:51;;;;;;;2.40;2.20;;;20.10;99.90;;;;;;4977594;28;20670;-72
2023/07/28 09:18:18;;;;;;;2.20;2.00;;;20.00;99.90;;;;;;4979567;28;20647;-73
2023/07/28 09:20:45;;;;;;;2.37;2.17;;;20.00;99.90;;;;;;4981534;28;20861;-71
2023/07/28 09:23:15;;;;;;;2.23;2.00;;;19.80;99.90;;;;;;4984712;28;21247;-72
2023/07/28 09:25:42;;;;;;;2.17;1.93;;;19.80;99.90;;;;;;4982167;28;20654;-71
2023/07/28 09:28:11;;;;;;;2.10;1.80;;;19.80;99.90;;;;;;4978843;28;20995;-71
2023/07/28 09:30:47;;;;;;;2.47;2.37;;;19.90;99.90;;;;;;4979610;28;20655;-72
2023/07/28 09:33:14;;;;;;;2.17;2.03;;;20.10;99.90;;;;;;4977690;28;20638;-71
2023/07/28 09:35:51;;;;;;;2.20;2.10;;;20.20;99.90;;;;;;4971179;28;20677;-73
2023/07/28 09:38:20;;;;;;;3.00;2.80;;;20.20;99.90;;;;;;4979165;28;20842;-74
2023/07/28 09:40:47;;;;;;;2.47;1.87;;;20.40;99.90;;;;;;4978377;28;20224;-72
2023/07/28 09:43:18;;;;;;;3.57;3.23;;;20.50;99.90;;;;;;4982896;28;20631;-70
2023/07/28 09:45:46;;;;;;;2.30;2.10;;;20.70;99.90;;;;;;4982832;28;20687;-70
2023/07/28 09:48:14;;;;;;;2.50;2.20;;;20.90;99.90;;;;;;4976537;28;20664;-71
2023/07/28 09:50:42;;;;;;;3.07;2.60;;;21.20;99.90;;;;;;4974458;28;21209;-71
2023/07/28 09:53:10;;;;;;;2.60;2.40;;;21.30;99.90;;;;;;4976554;28;20658;-71
2023/07/28 09:55:40;;;;;;;2.20;1.67;;;21.30;99.90;;;;;;4976665;28;20673;-71
2023/07/28 09:58:11;;;;;;;2.63;2.30;;;21.60;99.90;;;;;;4978387;28;20745;-71
2023/07/28 10:00:40;;;;;;;1.87;1.77;;;21.80;99.90;;;;;;4975870;28;20664;-71
2023/07/28 10:03:09;;;;;;;2.83;2.60;;;21.80;99.90;;;;;;4979847;28;20731;-71
2023/07/28 10:05:36;;;;;;;2.17;1.70;;;21.70;99.90;;;;;;4976401;28;20653;-71
2023/07/28 10:08:04;;;;;;;3.07;2.40;;;21.70;99.90;;;;;;4981267;28;20658;-71
2023/07/28 10:10:31;;;;;;;2.70;2.50;;;21.70;99.90;;;;;;4974069;28;20691;-73
2023/07/28 10:13:00;;;;;;;1.80;1.70;;;21.70;99.90;;;;;;4979759;28;20752;-72
2023/07/28 10:15:30;;;;;;;1.80;1.70;;;21.50;99.90;;;;;;4976812;28;20705;-76
2023/07/28 10:18:00;;;;;;;1.53;1.43;;;21.40;99.90;;;;;;4979445;28;20720;-74
2023/07/28 10:20:35;;;;;;;1.70;1.40;;;21.40;99.90;;;;;;4982585;28;20763;-76
2023/07/28 10:23:07;;;;;;;1.97;1.60;;;21.30;99.90;;;;;;4972078;28;21026;-75
2023/07/28 10:25:36;;;;;;;2.07;1.80;;;21.10;99.90;;;;;;4974908;28;20659;-74
2023/07/28 10:28:03;;;;;;;2.27;2.10;;;21.00;99.90;;;;;;4978258;28;20628;-74
2023/07/28 10:30:39;;;;;;;1.57;1.47;;;20.90;99.90;;;;;;4980334;28;20667;-74
2023/07/28 10:33:09;;;;;;;2.60;2.03;;;21.10;99.90;;;;;;4977498;28;20633;-74
2023/07/28 10:35:36;;;;;;;2.23;1.33;;;21.10;99.90;;;;;;4981870;28;20752;-74
2023/07/28 10:38:34;;;;;;;1.20;1.10;;;21.20;99.90;;;;;;4984813;28;20642;-73
2023/07/28 10:41:18;;;;;;;2.70;1.03;;;21.00;99.90;;;;;;4975402;28;20663;-75
2023/07/28 10:43:46;;;;;;;0.77;0.60;;;21.10;99.90;;;;;;4974743;28;20641;-73
2023/07/28 10:46:17;;;;;;;0.80;0.80;;;21.00;99.90;;;;;;4977739;28;20661;-73
2023/07/28 10:48:46;;;;;;;1.13;0.87;;;21.00;99.90;;;;;;4981314;28;20663;-71
2023/07/28 10:51:20;;;;;;;1.87;1.53;;;21.20;99.90;;;;;;4981722;28;20660;-71
2023/07/28 10:53:50;;;;;;;1.47;1.13;;;21.30;99.90;;;;;;4985437;28;20628;-71
2023/07/28 10:56:17;;;;;;;0.77;0.60;;;21.40;99.90;;;;;;4987287;28;20676;-72
2023/07/28 10:58:44;;;;;;;2.07;1.30;;;21.60;99.90;;;;;;4982756;28;20640;-71
2023/07/28 11:01:10;;;;;;;1.00;0.90;;;21.70;99.90;;;;;;4983677;28;20658;-72
2023/07/28 11:03:37;;;;;;;1.20;1.10;;;22.00;99.90;;;;;;4990603;28;20643;-72
2023/07/28 11:06:06;;;;;;;0.70;0.70;;;22.10;98.80;;;;;;4984674;28;20775;-74
2023/07/28 11:08:34;;;;;;;0.90;0.90;;;22.30;99.90;;;;;;4981377;28;20647;-72
2023/07/28 11:11:05;;;;;;;0.90;0.83;;;22.60;99.00;;;;;;4983372;28;20662;-73
2023/07/28 11:13:32;;;;;;;1.03;0.70;;;22.80;98.30;;;;;;4984053;28;20703;-73
2023/07/28 11:15:59;;;;;;;1.13;0.90;;;22.90;98.40;;;;;;4985802;28;20677;-73
2023/07/28 11:18:27;;;;;;;1.43;1.33;;;23.10;98.80;;;;;;4981143;28;20721;-73
2023/07/28 11:20:53;;;;;;;1.57;1.20;;;23.10;97.30;;;;;;4985799;28;20658;-73
2023/07/28 11:23:21;;;;;;;1.37;1.27;;;23.00;97.60;;;;;;4976316;28;21231;-73
2023/07/28 11:25:48;;;;;;;1.30;1.20;;;23.10;98.00;;;;;;4976218;28;20682;-73
2023/07/28 11:28:15;;;;;;;1.00;0.90;;;23.20;98.10;;;;;;4987108;28;20678;-73
2023/07/28 11:30:43;;;;;;;1.50;1.10;;;23.30;98.30;;;;;;4977959;28;20660;-73
2023/07/28 11:33:12;;;;;;;1.33;1.23;;;23.30;97.50;;;;;;4981166;28;20690;-73
2023/07/28 11:35:40;;;;;;;1.13;0.80;;;23.50;97.70;;;;;;4984101;28;20655;-72
2023/07/28 11:38:09;;;;;;;1.10;1.00;;;23.50;96.80;;;;;;4983598;28;20656;-73
2023/07/28 11:40:37;;;;;;;1.40;1.30;;;23.40;96.10;;;;;;4974812;28;20985;-71
2023/07/28 11:43:04;;;;;;;3.80;1.17;;;23.00;97.30;;;;;;4981291;28;20939;-72
2023/07/28 11:45:31;;;;;;;1.70;1.60;;;23.00;97.90;;;;;;4982165;28;20760;-72
2023/07/28 11:48:00;;;;;;;2.40;1.23;;;22.90;96.40;;;;;;4977939;28;20630;-72
2023/07/28 11:50:29;;;;;;;2.10;1.43;;;22.80;96.80;;;;;;4972513;28;21614;-72
2023/07/28 11:52:57;;;;;;;4.27;1.83;;;22.70;97.80;;;;;;4978816;28;21375;-72
2023/07/28 11:55:25;;;;;;;1.90;1.80;;;22.60;97.00;;;;;;4980807;28;20759;-71
2023/07/28 11:57:55;;;;;;;3.03;1.70;;;22.50;96.30;;;;;;4981382;28;21086;-72
2023/07/28 12:00:29;;;;;;;1.53;1.43;;;22.30;94.90;;;;;;4981929;28;20627;-71
2023/07/28 12:03:04;;;;;;;1.60;1.50;;;22.20;95.90;;;;;;4980247;28;20661;-72
2023/07/28 12:05:32;;;;;;;1.83;1.70;;;22.00;96.80;;;;;;4982313;28;20678;-72
2023/07/28 12:08:00;;;;;;;1.77;1.67;;;21.80;96.60;;;;;;4976956;28;20626;-72
2023/07/28 12:10:27;;;;;;;1.57;1.47;;;21.80;98.30;;;;;;4982013;28;20745;-72
2023/07/28 12:12:55;;;;;;;2.83;2.27;;;21.70;98.80;;;;;;4979838;28;20640;-71
2023/07/28 12:15:26;;;;;;;2.60;1.90;;;21.50;99.40;;;;;;4982919;28;20628;-72
2023/07/28 12:18:05;;;;;;;1.90;1.80;;;21.20;99.90;;;;;;4975423;28;20672;-72
2023/07/28 12:20:34;;;;;;;5.77;2.50;;;21.30;99.90;;;;;;4980367;28;20658;-72
2023/07/28 12:23:02;;;;;;;2.13;1.93;;;21.30;99.90;;;;;;4982280;28;21156;-72
2023/07/28 12:25:29;;;;;;;2.30;2.10;;;21.30;99.90;;;;;;4982544;28;21007;-72
2023/07/28 12:27:57;;;;;;;3.40;2.00;;;21.30;99.90;;;;;;4981217;28;20703;-72
2023/07/28 12:30:24;;;;;;;4.07;1.50;;;21.40;99.30;;;;;;4978860;28;20770;-72
2023/07/28 12:32:51;;;;;;;1.50;1.40;;;21.50;99.90;;;;;;4979685;28;20731;-72
2023/07/28 12:35:18;;;;;;;3.20;2.50;;;21.50;99.90;;;;;;4982190;28;20651;-72
2023/07/28 12:37:45;;;;;;;3.03;1.73;;;21.60;99.90;;;;;;4982613;28;20666;-72
2023/07/28 12:40:13;;;;;;;2.43;1.93;;;21.70;99.90;;;;;;4979664;28;20956;-72
2023/07/28 12:42:40;;;;;;;2.90;2.03;;;21.90;99.70;;;;;;4979445;28;20711;-72
2023/07/28 12:45:10;;;;;;;2.10;1.93;;;22.20;98.90;;;;;;4979826;28;20627;-72
2023/07/28 12:47:37;;;;;;;1.93;1.73;;;22.20;99.80;;;;;;4981026;28;20636;-72
2023/07/28 12:50:06;;;;;;;2.50;1.90;;;22.20;99.90;;;;;;4979732;28;20639;-72
2023/07/28 12:52:33;;;;;;;2.20;1.97;;;22.30;99.40;;;;;;4978126;28;20632;-72